createdAt,value
2023-05-20T00:04:42.966Z,4.63
2023-05-20T00:10:06.011Z,3.83
2023-05-20T00:15:12.537Z,5.53
2023-05-20T00:20:23.858Z,4.88
2023-05-20T00:25:30.929Z,5.22
2023-05-20T00:30:40.813Z,4.70
2023-05-20T00:35:49.973Z,3.63
2023-05-20T00:40:52.016Z,5.33
2023-05-20T00:45:55.163Z,5.22
2023-05-20T00:50:57.261Z,5.63
2023-05-20T00:55:59.813Z,5.00
2023-05-20T01:01:02.114Z,5.22
2023-05-20T01:06:04.198Z,4.13
2023-05-20T01:11:18.955Z,4.68
2023-05-20T01:16:25.872Z,6.75
2023-05-20T01:21:30.636Z,7.65
2023-05-20T01:26:32.290Z,4.68
2023-05-20T01:31:40.888Z,7.13
2023-05-20T01:36:46.074Z,6.68
2023-05-20T01:41:49.137Z,5.10
2023-05-20T01:46:50.868Z,4.68
2023-05-20T01:51:54.974Z,5.43
2023-05-20T01:56:57.175Z,4.75
2023-05-20T02:01:58.854Z,5.22
2023-05-20T02:07:00.484Z,5.65
2023-05-20T02:12:02.437Z,6.88
2023-05-20T02:17:04.255Z,4.80
2023-05-20T02:22:07.228Z,6.50
2023-05-20T02:27:09.012Z,6.03
2023-05-20T02:32:10.840Z,6.75
2023-05-20T02:37:13.421Z,8.52
2023-05-20T02:42:17.731Z,5.00
2023-05-20T02:47:23.203Z,4.90
2023-05-20T02:52:37.522Z,5.07
2023-05-20T02:57:41.053Z,4.45
2023-05-20T03:08:10.748Z,8.30
2023-05-20T03:13:13.203Z,5.78
2023-05-20T03:18:14.869Z,5.88
2023-05-20T03:23:20.192Z,4.95
2023-05-20T03:28:37.141Z,5.70
2023-05-20T03:33:39.482Z,6.03
2023-05-20T03:49:16.110Z,6.82
2023-05-20T03:54:22.008Z,6.40
2023-05-20T03:59:31.366Z,6.85
2023-05-20T04:04:39.751Z,4.53
2023-05-20T04:15:14.296Z,6.10
2023-05-20T04:20:33.028Z,6.28
2023-05-20T04:25:38.603Z,6.05
2023-05-20T04:41:34.242Z,5.88
2023-05-20T04:46:36.116Z,7.22
2023-05-20T04:51:38.092Z,6.18
2023-05-20T04:56:55.785Z,6.20
2023-05-20T05:01:57.540Z,7.82
2023-05-20T05:06:59.276Z,6.95
2023-05-20T05:12:01.159Z,6.68
2023-05-20T05:17:03.194Z,6.78
2023-05-20T05:22:09.342Z,6.57
2023-05-20T05:27:15.781Z,7.32
2023-05-20T05:32:18.807Z,7.05
2023-05-20T05:37:20.925Z,7.30
2023-05-20T05:42:23.820Z,7.07
2023-05-20T05:47:27.272Z,7.82
2023-05-20T05:52:28.823Z,5.63
2023-05-20T05:57:34.096Z,6.50
2023-05-20T06:02:54.231Z,6.20
2023-05-20T06:07:56.289Z,8.90
2023-05-20T06:13:00.584Z,6.15
2023-05-20T06:18:05.344Z,7.70
2023-05-20T06:23:18.197Z,6.45
2023-05-20T06:28:20.948Z,5.55
2023-05-20T06:33:27.393Z,8.07
2023-05-20T06:38:29.648Z,6.57
2023-05-20T06:43:31.526Z,6.78
2023-05-20T06:48:33.075Z,5.50
2023-05-20T06:53:34.849Z,5.70
2023-05-20T06:58:36.487Z,5.22
2023-05-20T07:15:08.283Z,5.70
2023-05-20T07:25:27.009Z,5.95
2023-05-20T07:30:28.874Z,6.10
2023-05-20T07:35:30.395Z,5.80
2023-05-20T07:40:31.965Z,7.45
2023-05-20T07:45:36.281Z,7.28
2023-05-20T07:50:38.186Z,10.30
2023-05-20T07:55:50.746Z,7.18
2023-05-20T08:00:52.665Z,6.82
2023-05-20T08:06:11.466Z,6.53
2023-05-20T08:11:13.566Z,8.63
2023-05-20T08:16:23.577Z,7.70
2023-05-20T08:21:26.266Z,7.90
2023-05-20T08:26:28.717Z,6.68
2023-05-20T08:43:13.232Z,7.55
2023-05-20T08:48:34.316Z,8.52
2023-05-20T08:59:49.389Z,6.45
2023-05-20T09:05:09.792Z,7.93
2023-05-20T09:10:14.216Z,8.07
2023-05-20T09:15:16.197Z,18.08
2023-05-20T09:20:18.454Z,15.13
2023-05-20T09:25:23.884Z,6.70
2023-05-20T09:30:28.534Z,6.85
2023-05-20T09:35:34.219Z,10.30
2023-05-20T09:40:37.133Z,6.10
2023-05-20T09:46:00.189Z,7.40
2023-05-20T09:51:05.558Z,10.00
2023-05-20T09:56:12.897Z,6.55
2023-05-20T10:01:35.364Z,6.10
2023-05-20T10:07:20.948Z,8.32
2023-05-20T10:13:00.696Z,6.85
2023-05-20T10:18:38.437Z,6.25
2023-05-20T10:23:40.505Z,7.03
2023-05-20T10:28:57.390Z,7.43
2023-05-20T10:34:01.219Z,6.32
2023-05-20T10:44:49.510Z,6.97
2023-05-20T10:50:54.771Z,7.22
2023-05-20T11:01:34.820Z,7.15
2023-05-20T11:18:36.902Z,7.65
2023-05-20T11:24:11.601Z,9.20
2023-05-20T11:30:10.504Z,7.07
2023-05-20T11:35:26.026Z,7.10
2023-05-20T11:40:38.953Z,6.85
2023-05-20T11:46:00.212Z,8.02
2023-05-20T11:51:02.355Z,8.73
2023-05-20T11:56:04.491Z,7.88
2023-05-20T12:01:23.024Z,6.63
2023-05-20T12:11:36.901Z,8.27
2023-05-20T12:16:52.072Z,8.20
2023-05-20T12:21:53.907Z,7.38
2023-05-20T12:26:55.436Z,7.60
2023-05-20T12:32:03.400Z,9.80
2023-05-20T12:37:05.588Z,7.68
2023-05-20T12:42:07.421Z,8.45
2023-05-20T12:47:10.302Z,7.35
2023-05-20T12:52:22.484Z,7.38
2023-05-20T12:57:25.331Z,8.05
2023-05-20T13:02:27.619Z,11.88
2023-05-20T13:07:32.647Z,6.22
2023-05-20T13:12:42.057Z,6.95
2023-05-20T13:28:20.912Z,6.47
2023-05-20T13:33:22.917Z,7.70
2023-05-20T13:38:26.819Z,7.53
2023-05-20T13:43:33.851Z,8.50
2023-05-20T13:48:36.034Z,7.28
2023-05-20T13:53:49.074Z,8.25
2023-05-20T13:58:52.508Z,7.00
2023-05-20T14:03:54.615Z,6.68
2023-05-20T14:09:12.936Z,8.07
2023-05-20T14:14:36.345Z,8.20
2023-05-20T14:19:41.994Z,6.85
2023-05-20T14:24:49.647Z,6.15
2023-05-20T14:36:23.618Z,7.15
2023-05-20T14:41:33.195Z,8.20
2023-05-20T14:46:37.754Z,8.32
2023-05-20T14:57:12.627Z,7.15
2023-05-20T15:02:15.771Z,6.38
2023-05-20T15:07:22.993Z,7.75
2023-05-20T15:12:32.520Z,10.20
2023-05-20T15:18:15.060Z,8.30
2023-05-20T15:23:10.223Z,6.85
2023-05-20T15:28:25.487Z,7.20
2023-05-20T15:33:32.652Z,6.80
2023-05-20T15:38:43.385Z,6.07
2023-05-20T15:44:00.103Z,9.40
2023-05-20T15:49:05.405Z,6.88
2023-05-20T15:54:19.389Z,6.35
2023-05-20T15:59:23.002Z,9.02
2023-05-20T16:04:28.118Z,6.88
2023-05-20T16:09:30.006Z,8.00
2023-05-20T16:14:32.168Z,7.07
2023-05-20T16:19:33.899Z,8.77
2023-05-20T16:24:35.976Z,6.93
2023-05-20T16:29:39.108Z,9.48
2023-05-20T16:34:41.369Z,8.05
2023-05-20T16:39:43.423Z,7.57
2023-05-20T16:44:48.073Z,7.50
2023-05-20T16:49:49.914Z,8.35
2023-05-20T16:54:51.346Z,6.57
2023-05-20T16:59:58.950Z,7.63
2023-05-20T17:05:02.205Z,8.27
2023-05-20T17:10:04.149Z,7.55
2023-05-20T17:15:08.130Z,7.68
2023-05-20T17:20:16.371Z,8.13
2023-05-20T17:25:20.967Z,7.65
2023-05-20T17:30:22.872Z,6.63
2023-05-20T17:35:24.536Z,7.53
2023-05-20T17:40:28.601Z,8.45
2023-05-20T17:45:30.637Z,8.18
2023-05-20T17:50:32.510Z,8.93
2023-05-20T17:55:42.692Z,7.72
2023-05-20T18:00:44.885Z,8.05
2023-05-20T18:05:47.508Z,6.53
2023-05-20T18:10:49.504Z,7.28
2023-05-20T18:15:51.359Z,8.68
2023-05-20T18:20:53.355Z,8.05
2023-05-20T18:25:55.251Z,8.02
2023-05-20T18:30:57.132Z,9.40
2023-05-20T18:36:07.670Z,6.95
2023-05-20T18:41:09.534Z,7.07
2023-05-20T18:46:11.445Z,8.63
2023-05-20T18:51:13.604Z,7.15
2023-05-20T18:56:15.624Z,7.38
2023-05-20T19:01:20.747Z,8.45
2023-05-20T19:06:22.515Z,7.97
2023-05-20T19:11:24.429Z,8.68
2023-05-20T19:16:26.608Z,6.75
2023-05-20T19:21:31.575Z,8.18
2023-05-20T19:26:33.524Z,8.55
2023-05-20T19:31:35.628Z,7.53
2023-05-20T19:36:41.714Z,9.50
2023-05-20T19:41:43.830Z,9.05
2023-05-20T19:46:45.729Z,11.38
2023-05-20T19:51:50.296Z,11.82
2023-05-20T19:56:51.752Z,12.27
2023-05-20T20:01:53.944Z,8.35
2023-05-20T20:06:56.017Z,9.38
2023-05-20T20:11:57.927Z,8.93
2023-05-20T20:17:00.163Z,10.45
2023-05-20T20:22:02.516Z,9.45
2023-05-20T20:27:05.320Z,11.50
2023-05-20T20:32:11.786Z,11.27
2023-05-20T20:37:14.598Z,10.23
2023-05-20T20:42:16.297Z,10.00
2023-05-20T20:47:25.578Z,12.70
2023-05-20T20:52:27.461Z,11.20
2023-05-20T20:57:31.958Z,12.52
2023-05-20T21:02:36.693Z,11.57
2023-05-20T21:07:38.851Z,15.82
2023-05-20T21:12:46.062Z,13.88
2023-05-20T21:17:48.163Z,11.85
2023-05-20T21:22:54.246Z,13.65
2023-05-20T21:27:57.114Z,13.30
2023-05-20T21:33:01.877Z,13.90
2023-05-20T21:38:04.770Z,12.85
2023-05-20T21:43:06.550Z,13.43
2023-05-20T21:48:17.130Z,13.13
2023-05-20T21:53:24.404Z,12.85
2023-05-20T21:58:26.151Z,13.98
2023-05-20T22:03:28.003Z,13.57
2023-05-20T22:08:32.810Z,14.18
2023-05-20T22:13:38.705Z,13.00
2023-05-20T22:18:41.677Z,13.88
2023-05-20T22:23:44.106Z,13.32
2023-05-20T22:28:46.035Z,15.68
2023-05-20T22:33:48.133Z,13.73
2023-05-20T22:38:50.333Z,14.38
2023-05-20T22:43:52.207Z,14.40
2023-05-20T22:48:53.985Z,15.00
2023-05-20T22:53:59.505Z,16.40
2023-05-20T22:59:01.651Z,15.32
2023-05-20T23:04:04.010Z,17.92
2023-05-20T23:09:05.793Z,18.17
2023-05-20T23:14:07.660Z,15.85
2023-05-20T23:19:09.321Z,18.33
2023-05-20T23:24:21.489Z,17.25
2023-05-20T23:29:23.421Z,17.83
2023-05-20T23:34:27.836Z,41.35
2023-05-20T23:39:37.617Z,29.92
2023-05-20T23:44:39.314Z,18.10
2023-05-20T23:49:44.260Z,18.20
2023-05-20T23:54:46.392Z,17.75
2023-05-20T23:59:50.685Z,17.77
